Time;durP1;ratioP1;P1;durP2;ratioP2;P2;SDS_P1;SDS_P2;PMS_P1;PMS_P2;Temp;Humidity;BMP_temperature;BMP_pressure;BME280_temperature;BME280_humidity;BME280_pressure;Samples;Min_cycle;Max_cycle;Signal;HPM_P1;HPM_P2
2023/05/24 00:00:00;;;;;;;12.37;5.20;;;12.40;1.00;;;;;;5114451;28;20572;-93
2023/05/24 00:02:27;;;;;;;15.70;6.70;;;12.30;1.00;;;;;;5117356;28;20210;-93
2023/05/24 00:04:54;;;;;;;18.83;5.90;;;12.20;1.00;;;;;;5117447;28;20234;-92
2023/05/24 00:07:22;;;;;;;20.20;6.30;;;12.20;1.00;;;;;;5116735;28;20191;-94
2023/05/24 00:09:49;;;;;;;16.67;6.53;;;12.10;1.00;;;;;;5108948;28;20199;-92
2023/05/24 00:12:16;;;;;;;18.53;6.60;;;12.10;1.00;;;;;;5096391;28;20203;-91
2023/05/24 00:14:43;;;;;;;24.27;7.10;;;12.10;1.00;;;;;;5104535;28;20214;-92
2023/05/24 00:17:11;;;;;;;19.20;6.90;;;12.00;1.00;;;;;;5116700;28;20194;-92
2023/05/24 00:19:38;;;;;;;15.57;6.80;;;11.90;1.00;;;;;;5101163;28;20290;-91
2023/05/24 00:22:05;;;;;;;20.83;7.10;;;11.90;1.00;;;;;;5096531;28;20238;-91
2023/05/24 00:24:33;;;;;;;20.30;6.77;;;11.90;1.00;;;;;;5100186;28;20214;-91
2023/05/24 00:27:00;;;;;;;19.27;7.17;;;11.80;1.00;;;;;;5116525;28;20569;-91
2023/05/24 00:29:27;;;;;;;18.17;6.90;;;11.80;1.00;;;;;;5116713;28;20205;-91
2023/05/24 00:31:54;;;;;;;17.43;6.93;;;11.80;1.00;;;;;;5116562;28;20191;-91
2023/05/24 00:34:20;;;;;;;15.00;5.93;;;11.80;1.00;;;;;;5111789;28;20213;-91
2023/05/24 00:36:47;;;;;;;17.97;6.13;;;11.80;1.00;;;;;;5115479;28;20205;-91
2023/05/24 00:39:14;;;;;;;17.13;5.53;;;11.80;1.00;;;;;;5100796;28;20209;-91
2023/05/24 00:41:42;;;;;;;16.10;7.43;;;11.80;1.00;;;;;;5095802;28;20205;-91
2023/05/24 00:44:10;;;;;;;17.63;6.37;;;11.70;1.00;;;;;;5095687;28;20190;-92
2023/05/24 00:46:37;;;;;;;17.93;6.43;;;11.70;12.80;;;;;;5110431;28;20198;-91
2023/05/24 00:49:04;;;;;;;14.90;5.53;;;11.70;8.90;;;;;;5116233;28;20202;-91
2023/05/24 00:51:32;;;;;;;15.53;5.57;;;11.70;35.80;;;;;;5116282;28;20197;-91
2023/05/24 00:54:00;;;;;;;17.93;6.17;;;11.60;10.50;;;;;;5095714;28;20224;-91
2023/05/24 00:56:27;;;;;;;16.53;5.27;;;11.60;28.40;;;;;;5095518;28;20201;-90
2023/05/24 00:58:55;;;;;;;17.47;5.67;;;11.50;92.20;;;;;;5095770;28;20202;-91
2023/05/24 01:01:24;;;;;;;13.70;5.27;;;11.60;47.70;;;;;;5095536;28;20215;-90
2023/05/24 01:03:52;;;;;;;14.90;4.90;;;11.50;43.80;;;;;;5095440;28;20201;-91
2023/05/24 01:06:19;;;;;;;15.53;5.23;;;11.50;1.00;;;;;;5102518;28;20285;-91
2023/05/24 01:08:59;;;;;;;18.50;5.87;;;11.50;85.70;;;;;;5115249;28;20202;-90
2023/05/24 01:11:34;;;;;;;15.80;4.83;;;11.40;99.90;;;;;;5095244;28;20204;-91
2023/05/24 01:14:08;;;;;;;15.20;5.43;;;11.40;99.90;;;;;;5097381;28;20212;-91
2023/05/24 01:16:45;;;;;;;14.53;5.47;;;11.40;99.90;;;;;;5095311;28;20200;-91
2023/05/24 01:19:36;;;;;;;13.27;5.17;;;11.30;99.90;;;;;;5095574;28;20263;-92
2023/05/24 01:22:13;;;;;;;13.13;4.80;;;11.30;99.90;;;;;;5092235;28;20201;-92
2023/05/24 01:24:53;;;;;;;13.33;4.73;;;11.30;99.90;;;;;;5094753;28;20559;-91
2023/05/24 01:27:22;;;;;;;12.93;4.87;;;11.30;99.90;;;;;;5095116;28;20232;-92
2023/05/24 01:29:52;;;;;;;9.77;4.70;;;11.30;99.90;;;;;;5097701;28;20194;-92
2023/05/24 01:32:19;;;;;;;13.93;4.90;;;11.20;99.90;;;;;;5114628;28;20196;-91
2023/05/24 01:34:46;;;;;;;17.73;4.70;;;11.30;99.90;;;;;;5115344;28;20213;-93
2023/05/24 01:37:12;;;;;;;15.73;4.53;;;11.20;99.90;;;;;;5115390;28;20203;-92
2023/05/24 01:39:40;;;;;;;11.43;4.33;;;11.20;99.90;;;;;;5115321;28;20208;-91
2023/05/24 01:42:11;;;;;;;6.53;4.07;;;11.20;99.90;;;;;;5115063;28;20200;-91
2023/05/24 01:44:44;;;;;;;7.77;4.03;;;11.20;99.90;;;;;;5115239;28;20188;-91
2023/05/24 01:47:33;;;;;;;9.40;4.30;;;11.20;99.90;;;;;;5115071;28;20203;-92
2023/05/24 01:50:06;;;;;;;11.93;4.70;;;11.20;99.90;;;;;;5111967;28;20186;-91
2023/05/24 01:52:35;;;;;;;12.87;4.80;;;11.20;99.90;;;;;;5094231;28;20198;-91
2023/05/24 01:55:04;;;;;;;10.20;4.40;;;11.20;99.90;;;;;;5095285;28;20201;-92
2023/05/24 01:57:34;;;;;;;13.30;4.37;;;11.20;99.90;;;;;;5099720;28;20192;-92
2023/05/24 02:00:04;;;;;;;14.60;4.70;;;11.20;99.90;;;;;;5115078;28;20200;-92
2023/05/24 02:02:30;;;;;;;13.53;4.43;;;11.30;99.90;;;;;;5107227;28;20246;-91
2023/05/24 02:04:57;;;;;;;11.63;4.80;;;11.30;99.90;;;;;;5094506;28;20196;-92
2023/05/24 02:07:24;;;;;;;11.83;4.83;;;11.30;99.90;;;;;;5094714;28;20210;-92
2023/05/24 02:09:52;;;;;;;11.57;4.20;;;11.30;99.90;;;;;;5096779;28;20197;-92
2023/05/24 02:12:19;;;;;;;10.73;3.80;;;11.30;99.90;;;;;;5097651;28;20201;-91
2023/05/24 02:14:49;;;;;;;7.47;3.33;;;11.30;99.90;;;;;;5099257;28;20209;-92
2023/05/24 02:17:18;;;;;;;7.50;3.30;;;11.30;99.90;;;;;;5112503;28;20188;-92
2023/05/24 02:19:45;;;;;;;6.60;2.53;;;11.30;99.90;;;;;;5107822;28;20207;-91
2023/05/24 02:22:12;;;;;;;4.27;2.40;;;11.30;99.90;;;;;;5114436;28;20207;-92
2023/05/24 02:24:40;;;;;;;8.83;2.90;;;11.40;99.90;;;;;;5115353;28;20248;-92
2023/05/24 02:27:06;;;;;;;7.10;2.47;;;11.40;99.90;;;;;;5114712;28;20200;-91
2023/05/24 02:29:33;;;;;;;5.80;2.33;;;11.40;99.90;;;;;;5098737;28;20197;-92
2023/05/24 02:32:00;;;;;;;4.47;2.07;;;11.40;99.90;;;;;;5094373;28;20206;-93
2023/05/24 02:34:28;;;;;;;7.40;2.50;;;11.40;99.90;;;;;;5094350;28;20253;-92
2023/05/24 02:36:55;;;;;;;5.87;2.63;;;11.30;99.90;;;;;;5094257;28;20196;-92
2023/05/24 02:39:22;;;;;;;5.90;3.13;;;11.30;99.90;;;;;;5094429;28;20618;-92
2023/05/24 02:41:49;;;;;;;7.23;2.60;;;11.20;99.90;;;;;;5094568;28;20222;-92
2023/05/24 02:44:16;;;;;;;4.67;2.30;;;11.20;99.90;;;;;;5094114;28;20666;-92
2023/05/24 02:46:42;;;;;;;5.77;2.70;;;11.20;99.90;;;;;;5108502;28;20210;-93
2023/05/24 02:49:09;;;;;;;6.17;3.00;;;11.20;99.90;;;;;;5115305;28;20200;-94
2023/05/24 02:51:38;;;;;;;9.43;3.00;;;11.10;99.90;;;;;;5111675;28;20192;-94
2023/05/24 02:54:05;;;;;;;4.90;2.60;;;11.10;99.90;;;;;;5113290;28;20583;-95
2023/05/24 02:56:31;;;;;;;7.10;2.77;;;11.10;99.90;;;;;;5094624;28;20212;-94
2023/05/24 02:58:58;;;;;;;10.70;2.87;;;11.10;99.90;;;;;;5095053;28;20204;-93
2023/05/24 03:01:25;;;;;;;8.47;3.33;;;11.00;99.90;;;;;;5108819;28;20188;-93
2023/05/24 03:03:52;;;;;;;7.80;2.80;;;11.00;99.90;;;;;;5102494;28;20189;-94
2023/05/24 03:06:18;;;;;;;10.53;3.50;;;10.90;1.00;;;;;;5118390;28;20205;-93
2023/05/24 03:08:48;;;;;;;8.07;3.60;;;10.90;99.90;;;;;;5100816;28;20201;-94
2023/05/24 03:11:15;;;;;;;7.57;3.57;;;10.90;1.00;;;;;;5098420;28;20205;-94
2023/05/24 03:13:41;;;;;;;8.97;3.20;;;10.90;1.00;;;;;;5111047;28;20246;-93
2023/05/24 03:16:08;;;;;;;11.33;3.63;;;10.90;1.00;;;;;;5118393;28;20193;-94
2023/05/24 03:18:35;;;;;;;10.20;3.27;;;11.00;1.00;;;;;;5109746;28;20194;-95
2023/05/24 03:21:02;;;;;;;9.07;3.20;;;11.00;1.00;;;;;;5117850;28;20256;-93
2023/05/24 03:23:28;;;;;;;8.50;3.23;;;11.00;1.00;;;;;;5117791;28;20223;-94
2023/05/24 03:25:57;;;;;;;7.23;2.77;;;10.90;1.00;;;;;;5117800;28;20194;-94
2023/05/24 03:28:24;;;;;;;9.70;3.23;;;10.90;1.00;;;;;;5118401;28;20204;-94
2023/05/24 03:30:50;;;;;;;6.93;3.03;;;11.00;1.00;;;;;;5118033;28;20716;-94
2023/05/24 03:33:17;;;;;;;8.97;2.87;;;11.00;1.00;;;;;;5117786;28;20191;-94
2023/05/24 03:35:44;;;;;;;7.70;3.03;;;11.00;1.00;;;;;;5112988;28;20292;-93
2023/05/24 03:38:11;;;;;;;9.23;3.30;;;11.00;1.00;;;;;;5097726;28;20192;-93
2023/05/24 03:40:38;;;;;;;10.77;3.10;;;11.00;1.00;;;;;;5097630;28;20202;-93
2023/05/24 03:43:06;;;;;;;6.97;2.97;;;11.00;1.00;;;;;;5097460;28;20208;-94
2023/05/24 03:45:32;;;;;;;8.33;3.33;;;11.00;1.00;;;;;;5097275;28;20193;-95
2023/05/24 03:47:59;;;;;;;8.80;3.03;;;11.00;1.00;;;;;;5097404;28;20569;-94
2023/05/24 03:50:26;;;;;;;11.80;3.90;;;11.00;1.00;;;;;;5098148;28;20193;-95
2023/05/24 03:52:53;;;;;;;7.67;3.50;;;11.00;1.00;;;;;;5117803;28;20201;-94
2023/05/24 03:55:20;;;;;;;12.87;3.80;;;11.00;1.00;;;;;;5117644;28;20219;-94
2023/05/24 03:57:46;;;;;;;12.77;3.63;;;11.00;1.00;;;;;;5117391;28;20184;-94
2023/05/24 04:00:15;;;;;;;9.33;3.90;;;11.00;1.00;;;;;;5117688;28;20249;-92
2023/05/24 04:02:42;;;;;;;15.13;4.03;;;11.10;1.00;;;;;;5117458;28;20193;-92
2023/05/24 04:05:11;;;;;;;10.63;3.73;;;11.10;1.00;;;;;;5098359;28;20479;-92
2023/05/24 04:07:37;;;;;;;12.87;3.77;;;11.10;1.00;;;;;;5107015;28;20195;-93
2023/05/24 04:10:05;;;;;;;16.43;4.43;;;11.10;1.00;;;;;;5117124;28;20208;-93
2023/05/24 04:12:32;;;;;;;10.30;3.80;;;11.10;1.00;;;;;;5103141;28;20193;-92
2023/05/24 04:14:59;;;;;;;10.27;4.20;;;11.10;1.00;;;;;;5096404;28;20214;-93
2023/05/24 04:17:31;;;;;;;13.63;4.23;;;11.10;1.00;;;;;;5096201;28;20735;-93
2023/05/24 04:19:58;;;;;;;9.77;3.83;;;11.10;1.00;;;;;;5097409;28;20275;-94
2023/05/24 04:22:24;;;;;;;12.73;4.20;;;11.10;1.00;;;;;;5096278;28;20202;-95
2023/05/24 04:24:51;;;;;;;13.87;4.33;;;11.10;1.00;;;;;;5104453;28;20201;-93
2023/05/24 04:27:19;;;;;;;17.77;4.80;;;11.10;1.00;;;;;;5103262;28;20198;-93
2023/05/24 04:29:48;;;;;;;13.10;4.53;;;11.10;1.00;;;;;;5116948;28;20196;-93
2023/05/24 04:32:16;;;;;;;15.03;5.13;;;11.10;1.00;;;;;;5116585;28;20201;-92
2023/05/24 04:34:45;;;;;;;15.63;4.37;;;11.20;1.00;;;;;;5116636;28;20223;-93
2023/05/24 04:37:16;;;;;;;12.70;4.60;;;11.20;1.00;;;;;;5105515;28;20262;-94
2023/05/24 04:39:43;;;;;;;15.53;5.00;;;11.20;1.00;;;;;;5098650;28;20648;-93
2023/05/24 04:42:10;;;;;;;15.80;5.50;;;11.20;1.00;;;;;;5116890;28;20200;-94
2023/05/24 04:44:37;;;;;;;17.73;5.43;;;11.20;1.00;;;;;;5105524;28;20191;-93
2023/05/24 04:47:04;;;;;;;16.03;4.60;;;11.20;1.00;;;;;;5107072;28;20632;-93
2023/05/24 04:49:31;;;;;;;13.50;4.97;;;11.20;1.00;;;;;;5116134;28;20192;-94
2023/05/24 04:51:59;;;;;;;14.03;5.17;;;11.20;1.00;;;;;;5115926;28;20188;-92
2023/05/24 04:54:26;;;;;;;18.30;5.40;;;11.20;1.00;;;;;;5116571;28;20219;-93
2023/05/24 04:56:53;;;;;;;13.47;4.80;;;11.30;1.00;;;;;;5115970;28;20198;-92
2023/05/24 04:59:19;;;;;;;15.63;5.30;;;11.30;1.00;;;;;;5114155;28;20195;-93
2023/05/24 05:01:47;;;;;;;18.33;5.20;;;11.40;1.00;;;;;;5095739;28;20198;-92
2023/05/24 05:04:13;;;;;;;18.33;5.27;;;11.40;1.00;;;;;;5096051;28;20190;-91
2023/05/24 05:06:43;;;;;;;17.07;5.30;;;11.50;99.90;;;;;;5095988;28;20198;-93
2023/05/24 05:09:12;;;;;;;17.77;5.50;;;11.50;99.90;;;;;;5095359;28;20202;-93
2023/05/24 05:11:39;;;;;;;17.33;4.77;;;11.50;99.90;;;;;;5095938;28;20205;-92
2023/05/24 05:14:08;;;;;;;18.17;5.00;;;11.60;99.90;;;;;;5095383;28;20561;-93
2023/05/24 05:16:35;;;;;;;14.80;3.90;;;11.60;99.90;;;;;;5105455;28;20209;-92
2023/05/24 05:19:03;;;;;;;12.50;4.63;;;11.60;99.90;;;;;;5113026;28;20194;-93
2023/05/24 05:21:31;;;;;;;17.87;4.80;;;11.70;1.00;;;;;;5099185;28;20190;-95
2023/05/24 05:23:58;;;;;;;12.10;4.60;;;11.70;1.00;;;;;;5115852;28;20230;-93
2023/05/24 05:26:27;;;;;;;13.70;4.37;;;11.70;1.00;;;;;;5114124;28;20246;-94
2023/05/24 05:28:54;;;;;;;20.20;5.40;;;11.70;1.00;;;;;;5100089;28;20205;-95
2023/05/24 05:31:21;;;;;;;22.17;4.37;;;11.60;1.00;;;;;;5114165;28;20727;-94
2023/05/24 05:33:48;;;;;;;16.53;4.70;;;11.60;1.00;;;;;;5115236;28;20187;-94
2023/05/24 05:36:15;;;;;;;15.23;4.30;;;11.60;1.00;;;;;;5115128;27;20545;-93
2023/05/24 05:38:41;;;;;;;19.13;4.60;;;11.60;1.00;;;;;;5115167;28;20190;-94
2023/05/24 05:41:08;;;;;;;16.37;4.37;;;11.60;1.00;;;;;;5115397;28;20201;-93
2023/05/24 05:43:38;;;;;;;20.43;4.80;;;11.70;1.00;;;;;;5112737;28;20649;-94
2023/05/24 05:46:05;;;;;;;14.77;4.40;;;11.70;1.00;;;;;;5114881;28;20195;-94
2023/05/24 05:48:32;;;;;;;19.97;4.90;;;11.70;1.00;;;;;;5115085;28;20224;-94
2023/05/24 05:50:59;;;;;;;16.47;4.20;;;11.70;1.00;;;;;;5115105;28;20194;-94
2023/05/24 05:53:26;;;;;;;21.33;5.07;;;11.80;1.00;;;;;;5115590;28;20208;-94
2023/05/24 05:55:52;;;;;;;12.63;3.93;;;11.90;1.00;;;;;;5115109;28;20223;-93
2023/05/24 05:58:19;;;;;;;20.40;4.57;;;11.90;1.00;;;;;;5103189;28;20207;-94
2023/05/24 06:00:47;;;;;;;17.03;4.20;;;11.90;1.00;;;;;;5094528;28;20205;-94
2023/05/24 06:03:14;;;;;;;17.03;5.30;;;11.90;1.00;;;;;;5094658;28;20199;-94
2023/05/24 06:05:42;;;;;;;16.37;4.97;;;11.90;99.90;;;;;;5113845;28;20282;-94
2023/05/24 06:08:08;;;;;;;24.23;9.13;;;12.00;99.90;;;;;;5115063;28;20202;-94
2023/05/24 06:10:35;;;;;;;59.37;26.93;;;12.00;99.90;;;;;;5115006;28;20209;-94
2023/05/24 06:13:03;;;;;;;104.60;43.63;;;12.00;99.90;;;;;;5114954;28;20193;-95
2023/05/24 06:15:32;;;;;;;108.70;42.10;;;12.00;99.90;;;;;;5111170;28;20209;-94
2023/05/24 06:18:00;;;;;;;105.67;41.90;;;12.00;99.90;;;;;;5095083;28;20198;-94
2023/05/24 06:20:27;;;;;;;170.43;63.53;;;12.00;99.90;;;;;;5111624;28;20218;-94
2023/05/24 06:22:55;;;;;;;93.70;36.97;;;12.00;69.60;;;;;;5114720;28;20239;-95
2023/05/24 06:25:23;;;;;;;112.03;44.27;;;12.00;1.00;;;;;;5111605;28;20187;-94
2023/05/24 06:27:50;;;;;;;140.57;55.07;;;12.10;66.70;;;;;;5114528;28;20244;-94
2023/05/24 06:30:17;;;;;;;70.33;25.53;;;12.10;84.20;;;;;;5111986;28;20207;-95
2023/05/24 06:32:44;;;;;;;87.63;35.43;;;12.10;1.00;;;;;;5094482;28;20214;-95
2023/05/24 06:35:12;;;;;;;95.30;37.07;;;12.10;1.00;;;;;;5097889;28;20553;-95
2023/05/24 06:37:39;;;;;;;107.30;39.27;;;12.20;47.10;;;;;;5098649;28;20197;-94
2023/05/24 06:40:08;;;;;;;148.97;57.90;;;12.20;1.00;;;;;;5098539;28;20267;-94
2023/05/24 06:42:35;;;;;;;138.93;55.33;;;12.20;1.00;;;;;;5103688;28;20202;-94
2023/05/24 06:45:02;;;;;;;63.87;28.63;;;12.20;1.00;;;;;;5118699;28;20197;-94
2023/05/24 06:47:29;;;;;;;114.90;47.50;;;12.30;1.00;;;;;;5118994;28;20247;-94
2023/05/24 06:49:56;;;;;;;55.30;25.47;;;12.30;1.00;;;;;;5118540;28;20202;-95
2023/05/24 06:52:24;;;;;;;59.13;26.10;;;12.30;1.00;;;;;;5118558;28;20201;-94
2023/05/24 06:54:51;;;;;;;37.50;15.50;;;12.30;1.00;;;;;;5110773;28;20273;-93
2023/05/24 06:57:17;;;;;;;40.90;18.37;;;12.40;1.00;;;;;;5098521;28;20196;-94
2023/05/24 06:59:44;;;;;;;42.30;21.87;;;12.40;1.00;;;;;;5098339;28;20478;-95
2023/05/24 07:02:11;;;;;;;26.07;11.60;;;12.40;1.00;;;;;;5097830;28;20654;-95
2023/05/24 07:04:39;;;;;;;24.60;8.43;;;12.50;1.00;;;;;;5111219;28;20192;-95
2023/05/24 07:07:06;;;;;;;24.37;9.10;;;12.50;99.90;;;;;;5111082;28;20221;-94
2023/05/24 07:09:35;;;;;;;25.23;7.40;;;12.50;99.90;;;;;;5098290;28;20699;-95
2023/05/24 07:12:02;;;;;;;29.83;11.13;;;12.60;99.90;;;;;;5115791;28;20187;-95
2023/05/24 07:14:29;;;;;;;21.87;8.93;;;12.60;99.90;;;;;;5097791;28;20252;-96
2023/05/24 07:16:58;;;;;;;22.60;9.40;;;12.60;99.90;;;;;;5098406;28;20248;-94
2023/05/24 07:19:27;;;;;;;22.77;10.60;;;12.60;99.90;;;;;;5097855;28;20246;-96
2023/05/24 07:21:54;;;;;;;25.50;11.07;;;12.60;1.00;;;;;;5105464;28;20199;-95
2023/05/24 07:24:22;;;;;;;20.73;8.43;;;12.60;1.00;;;;;;5115034;28;20236;-94
2023/05/24 07:26:52;;;;;;;18.43;6.70;;;12.70;1.00;;;;;;5117496;28;20206;-94
2023/05/24 07:29:20;;;;;;;21.00;7.77;;;12.60;1.00;;;;;;5098849;27;20231;-94
2023/05/24 07:31:47;;;;;;;17.07;6.43;;;12.60;1.00;;;;;;5097796;28;20201;-95
2023/05/24 07:34:13;;;;;;;21.53;6.67;;;12.60;1.00;;;;;;5108303;28;20232;-94
2023/05/24 07:36:41;;;;;;;14.47;5.50;;;12.60;1.00;;;;;;5117928;28;20218;-94
2023/05/24 07:39:08;;;;;;;17.77;5.23;;;12.60;1.00;;;;;;5116038;28;20211;-94
2023/05/24 07:41:35;;;;;;;16.33;5.20;;;12.70;1.00;;;;;;5117184;28;20277;-95
2023/05/24 07:44:04;;;;;;;19.97;5.57;;;12.70;1.00;;;;;;5117658;28;20196;-95
2023/05/24 07:46:31;;;;;;;19.80;5.10;;;12.80;1.00;;;;;;5117368;28;20279;-96
2023/05/24 07:48:58;;;;;;;16.87;5.50;;;12.80;1.00;;;;;;5117744;27;20206;-94
2023/05/24 07:51:25;;;;;;;18.37;5.37;;;12.80;1.00;;;;;;5117625;28;20200;-95
2023/05/24 07:53:52;;;;;;;17.83;5.50;;;12.70;1.00;;;;;;5117655;28;20652;-95
2023/05/24 07:56:19;;;;;;;18.43;5.50;;;12.70;1.00;;;;;;5117400;28;20758;-95
2023/05/24 07:58:48;;;;;;;13.97;5.43;;;12.70;1.00;;;;;;5117427;28;20191;-95
2023/05/24 08:01:17;;;;;;;14.40;5.30;;;12.70;1.00;;;;;;5117227;28;20202;-94
2023/05/24 08:03:44;;;;;;;16.90;5.20;;;12.70;1.00;;;;;;5117635;28;20198;-95
2023/05/24 08:06:11;;;;;;;12.00;4.30;;;12.70;1.00;;;;;;5117345;28;20275;-95
2023/05/24 08:08:39;;;;;;;14.60;4.37;;;12.70;1.00;;;;;;5117364;28;20215;-94
2023/05/24 08:11:06;;;;;;;12.50;4.37;;;12.70;1.00;;;;;;5116826;28;20199;-94
2023/05/24 08:13:33;;;;;;;17.13;5.30;;;12.70;1.00;;;;;;5117141;28;20192;-95
2023/05/24 08:16:00;;;;;;;14.07;5.20;;;12.80;1.00;;;;;;5117195;28;20227;-94
2023/05/24 08:18:28;;;;;;;14.13;5.37;;;12.90;1.00;;;;;;5116999;28;20202;-94
2023/05/24 08:20:56;;;;;;;22.20;6.57;;;13.00;1.00;;;;;;5096446;28;20199;-95
2023/05/24 08:23:22;;;;;;;22.37;6.60;;;13.00;1.00;;;;;;5096626;28;20251;-93
2023/05/24 08:25:49;;;;;;;15.50;5.97;;;13.20;1.00;;;;;;5096496;28;20194;-94
2023/05/24 08:28:17;;;;;;;17.13;5.80;;;13.30;1.00;;;;;;5096530;28;20599;-94
2023/05/24 08:30:43;;;;;;;16.20;5.80;;;13.40;99.90;;;;;;5096129;28;20202;-93
2023/05/24 08:33:10;;;;;;;15.07;5.70;;;13.40;99.90;;;;;;5096274;28;20670;-94
2023/05/24 08:35:38;;;;;;;18.17;5.63;;;13.50;99.90;;;;;;5096196;28;20678;-94
2023/05/24 08:38:05;;;;;;;13.97;5.63;;;13.50;99.90;;;;;;5109881;28;20193;-93
2023/05/24 08:40:32;;;;;;;19.50;6.97;;;13.60;99.90;;;;;;5116466;28;20600;-93
2023/05/24 08:43:01;;;;;;;17.27;6.30;;;13.60;99.90;;;;;;5113102;28;20200;-95
2023/05/24 08:45:30;;;;;;;20.00;6.97;;;13.70;99.90;;;;;;5116685;28;20194;-93
2023/05/24 08:47:58;;;;;;;16.93;6.17;;;13.80;99.90;;;;;;5096226;28;20566;-94
2023/05/24 08:50:25;;;;;;;17.57;8.27;;;13.80;1.00;;;;;;5112140;28;20243;-93
2023/05/24 08:52:54;;;;;;;12.00;6.37;;;13.90;1.00;;;;;;5116066;28;20205;-94
2023/05/24 08:55:21;;;;;;;15.03;5.60;;;14.10;80.00;;;;;;5116266;28;20248;-93
2023/05/24 08:57:50;;;;;;;20.03;5.93;;;14.20;1.00;;;;;;5113635;28;20205;-93
2023/05/24 09:00:18;;;;;;;16.90;5.53;;;14.20;1.00;;;;;;5116336;28;20309;-93
2023/05/24 09:02:45;;;;;;;14.77;5.57;;;14.30;1.00;;;;;;5116269;28;20202;-93
2023/05/24 09:05:15;;;;;;;12.50;5.57;;;14.40;99.90;;;;;;5097256;28;20203;-95
2023/05/24 09:07:44;;;;;;;15.53;5.37;;;14.40;98.00;;;;;;5095881;28;20198;-94
2023/05/24 09:10:13;;;;;;;14.97;5.00;;;14.30;99.90;;;;;;5095672;28;20198;-94
2023/05/24 09:12:44;;;;;;;13.90;5.90;;;14.30;1.00;;;;;;5095971;28;20219;-94
2023/05/24 09:15:12;;;;;;;12.83;6.13;;;14.20;20.80;;;;;;5095706;28;20179;-94
2023/05/24 09:17:39;;;;;;;14.13;5.80;;;14.20;1.00;;;;;;5115899;28;20193;-94
2023/05/24 09:20:09;;;;;;;15.40;7.77;;;14.20;1.00;;;;;;5115876;28;20202;-93
2023/05/24 09:22:37;;;;;;;21.63;10.73;;;14.20;99.90;;;;;;5115251;28;20238;-95
2023/05/24 09:25:06;;;;;;;32.33;15.97;;;14.30;99.90;;;;;;5115634;28;20176;-95
2023/05/24 09:27:35;;;;;;;27.43;13.57;;;14.30;1.00;;;;;;5116232;28;20210;-94
2023/05/24 09:30:03;;;;;;;29.73;12.63;;;14.30;1.00;;;;;;5115753;28;20202;-94
2023/05/24 09:32:30;;;;;;;21.87;9.50;;;14.30;1.00;;;;;;5115627;28;20201;-94
2023/05/24 09:34:58;;;;;;;31.33;14.97;;;14.30;1.00;;;;;;5115666;28;20769;-93
2023/05/24 09:37:28;;;;;;;28.00;13.87;;;14.20;1.00;;;;;;5115372;28;20201;-94
2023/05/24 09:39:56;;;;;;;23.33;11.33;;;14.10;1.00;;;;;;5115443;28;20198;-95
2023/05/24 09:42:27;;;;;;;29.13;10.43;;;14.00;1.00;;;;;;5115281;28;20282;-94
2023/05/24 09:45:07;;;;;;;46.33;21.03;;;13.90;1.00;;;;;;5115535;28;20646;-95
2023/05/24 09:47:35;;;;;;;47.00;22.43;;;13.80;1.00;;;;;;5115444;28;20205;-94
2023/05/24 09:50:03;;;;;;;48.67;23.90;;;13.70;51.60;;;;;;5115311;28;20659;-93
2023/05/24 09:52:30;;;;;;;152.77;51.90;;;13.70;99.90;;;;;;5115136;28;20189;-94
2023/05/24 09:54:57;;;;;;;243.60;81.13;;;13.70;99.90;;;;;;5115118;27;20200;-95
2023/05/24 09:57:24;;;;;;;143.60;46.70;;;13.80;99.90;;;;;;5115027;28;20244;-94
2023/05/24 09:59:51;;;;;;;195.27;63.00;;;13.80;99.90;;;;;;5115410;28;20233;-95
2023/05/24 10:02:22;;;;;;;37.20;13.13;;;13.80;99.90;;;;;;5095388;28;20209;-95
2023/05/24 10:04:57;;;;;;;148.30;48.97;;;13.80;99.90;;;;;;5095203;28;20197;-94
2023/05/24 10:07:24;;;;;;;163.70;53.33;;;13.90;99.90;;;;;;5104304;28;20202;-94
2023/05/24 10:09:52;;;;;;;50.80;19.57;;;13.80;10.00;;;;;;5115318;28;20200;-95
2023/05/24 10:12:21;;;;;;;45.77;16.83;;;13.80;99.90;;;;;;5115136;28;20201;-95
2023/05/24 10:14:49;;;;;;;86.33;36.73;;;13.80;99.90;;;;;;5115413;28;20209;-95
2023/05/24 10:17:16;;;;;;;73.97;34.13;;;13.80;99.90;;;;;;5115031;28;20217;-94
2023/05/24 10:19:45;;;;;;;19.97;8.67;;;13.80;99.90;;;;;;5115750;28;20198;-95
2023/05/24 10:22:14;;;;;;;29.93;12.40;;;13.80;99.90;;;;;;5114998;28;20202;-95
2023/05/24 10:24:45;;;;;;;19.53;8.97;;;13.80;99.90;;;;;;5115508;28;20204;-95
2023/05/24 10:27:17;;;;;;;18.37;7.63;;;13.90;99.90;;;;;;5114442;28;20190;-95
2023/05/24 10:30:04;;;;;;;10.80;5.80;;;14.00;99.90;;;;;;5115614;28;20287;-96
2023/05/24 10:32:34;;;;;;;16.97;5.73;;;14.00;1.00;;;;;;5115229;28;20185;-95
2023/05/24 10:35:04;;;;;;;10.87;5.00;;;13.90;1.00;;;;;;5097790;28;20202;-95
2023/05/24 10:37:31;;;;;;;14.03;3.73;;;14.00;1.00;;;;;;5094705;28;20218;-95
2023/05/24 10:39:59;;;;;;;10.43;3.70;;;14.00;1.00;;;;;;5094730;28;20197;-94
2023/05/24 10:42:26;;;;;;;11.27;4.53;;;14.00;1.00;;;;;;5095334;28;22426;-94
2023/05/24 10:44:56;;;;;;;9.03;3.23;;;14.00;1.00;;;;;;5094410;28;20206;-94
2023/05/24 10:47:27;;;;;;;27.83;11.93;;;14.10;1.00;;;;;;5094916;28;20617;-93
2023/05/24 10:49:58;;;;;;;37.23;16.10;;;14.20;1.00;;;;;;5109167;28;20735;-94
2023/05/24 10:52:36;;;;;;;17.23;8.63;;;14.30;1.00;;;;;;5114787;28;20199;-94
2023/05/24 10:55:04;;;;;;;25.70;11.63;;;14.40;1.00;;;;;;5106579;28;20649;-94
2023/05/24 10:57:32;;;;;;;15.23;7.27;;;14.40;99.90;;;;;;5094368;28;20225;-94
2023/05/24 11:00:28;;;;;;;16.70;6.90;;;14.40;99.90;;;;;;5094094;28;20280;-95
2023/05/24 11:03:01;;;;;;;11.83;5.60;;;14.40;1.00;;;;;;5094197;28;20235;-94
2023/05/24 11:05:33;;;;;;;14.97;5.83;;;14.40;99.90;;;;;;5114352;28;20201;-94
2023/05/24 11:08:02;;;;;;;13.87;4.70;;;14.40;99.90;;;;;;5097534;28;20655;-94
2023/05/24 11:10:33;;;;;;;12.27;7.10;;;14.30;99.90;;;;;;5094083;28;20204;-95
2023/05/24 11:13:01;;;;;;;12.23;6.70;;;14.40;99.90;;;;;;5102818;28;20204;-93
2023/05/24 11:15:28;;;;;;;32.80;19.13;;;14.40;99.90;;;;;;5110893;28;20207;-94
2023/05/24 11:18:14;;;;;;;20.17;13.93;;;14.50;99.90;;;;;;5093810;28;20307;-95
2023/05/24 11:20:42;;;;;;;22.73;13.03;;;14.40;99.90;;;;;;5096142;28;20201;-95
2023/05/24 11:23:11;;;;;;;28.57;17.50;;;14.40;99.90;;;;;;5097526;28;20234;-94
2023/05/24 11:25:38;;;;;;;26.40;12.87;;;14.30;99.90;;;;;;5111968;28;20251;-95
2023/05/24 11:28:08;;;;;;;14.80;8.17;;;14.30;99.90;;;;;;5118526;28;20573;-94
2023/05/24 11:30:39;;;;;;;17.77;7.07;;;14.30;99.90;;;;;;5118198;27;20247;-95
2023/05/24 11:33:13;;;;;;;14.43;7.50;;;14.20;99.90;;;;;;5117804;28;20301;-95
2023/05/24 11:35:40;;;;;;;14.07;6.53;;;14.20;8.10;;;;;;5117984;28;20194;-95
2023/05/24 11:38:12;;;;;;;11.90;3.93;;;14.10;99.90;;;;;;5117904;28;20210;-94
2023/05/24 11:40:43;;;;;;;17.77;7.77;;;14.10;1.00;;;;;;5118070;28;20205;-95
2023/05/24 11:43:11;;;;;;;19.97;10.63;;;14.10;99.90;;;;;;5117425;28;20198;-94
2023/05/24 11:45:39;;;;;;;13.77;8.53;;;14.10;99.90;;;;;;5117634;28;20223;-94
2023/05/24 11:48:07;;;;;;;10.83;5.00;;;14.20;99.90;;;;;;5117602;28;20196;-95
2023/05/24 11:50:38;;;;;;;14.67;8.30;;;14.20;41.60;;;;;;5097495;28;20595;-95
2023/05/24 11:53:05;;;;;;;30.03;17.37;;;14.30;1.00;;;;;;5114270;28;20205;-94
2023/05/24 11:55:33;;;;;;;12.03;6.33;;;14.40;1.00;;;;;;5113411;28;20198;-94
2023/05/24 11:58:06;;;;;;;15.03;4.93;;;14.50;1.00;;;;;;5117426;28;20218;-94
2023/05/24 12:00:32;;;;;;;20.33;9.97;;;14.50;1.00;;;;;;5113027;28;20214;-95
2023/05/24 12:03:03;;;;;;;18.13;7.80;;;14.60;1.00;;;;;;5112947;28;20213;-95
2023/05/24 12:05:31;;;;;;;15.73;5.87;;;14.60;1.00;;;;;;5097056;28;20283;-96
2023/05/24 12:08:03;;;;;;;12.00;5.00;;;14.60;1.00;;;;;;5097229;28;20189;-95
2023/05/24 12:10:30;;;;;;;17.97;6.90;;;14.60;1.00;;;;;;5097172;28;20214;-95
2023/05/24 12:12:58;;;;;;;12.93;6.10;;;14.70;1.00;;;;;;5096866;28;20691;-95
2023/05/24 12:15:25;;;;;;;19.67;11.00;;;14.70;1.00;;;;;;5097995;28;20203;-95
2023/05/24 12:17:52;;;;;;;20.67;11.90;;;14.80;1.00;;;;;;5116990;28;20220;-96
2023/05/24 12:20:20;;;;;;;22.25;11.90;;;14.80;1.00;;;;;;5117577;28;20200;-94
2023/05/24 12:22:51;;;;;;;14.70;6.07;;;14.80;1.00;;;;;;5116890;28;20225;-95
2023/05/24 12:25:20;;;;;;;10.40;5.30;;;14.80;1.00;;;;;;5117254;28;20255;-95
2023/05/24 12:27:47;;;;;;;15.07;6.83;;;14.80;1.00;;;;;;5116843;28;20197;-95
2023/05/24 12:30:20;;;;;;;13.83;7.90;;;14.90;1.00;;;;;;5116915;28;20196;-94
2023/05/24 12:32:47;;;;;;;16.97;5.63;;;15.00;1.00;;;;;;5117507;28;20192;-95
2023/05/24 12:35:15;;;;;;;15.07;8.80;;;15.20;1.00;;;;;;5116710;28;20681;-95
2023/05/24 12:37:42;;;;;;;16.23;5.97;;;15.40;99.90;;;;;;5117338;28;20208;-95
2023/05/24 12:40:16;;;;;;;15.23;5.00;;;15.50;99.90;;;;;;5116605;28;20653;-94
2023/05/24 12:42:45;;;;;;;11.35;4.57;;;15.60;29.30;;;;;;5116987;28;20558;-95
2023/05/24 12:45:12;;;;;;;11.48;3.97;;;15.70;1.00;;;;;;5116417;28;20207;-96